Main page
METAR-TAF:

METAR-TAF

Airports :

Al Najaf International Airport

Najaf, Iraq

latitude: 31-59-23N, longitude: 44-24-15E, elevation: 31 m

Current weather observation

The report was made 36 minutes ago, at 22:00 UTC
Wind 7 kt from the Northwest
Temperature 36°C
Humidity 9%
Pressure 996 hPa
Visibility: 8000 m

METAR: ORNI 052200Z 32007KT 8000 NSC 36/M02 Q0996 NOSIG

Time: 01:36 (22:36 UTC)

Forecast

The report was made 6 hours and 36 minutes ago, at 16:00 UTC
Forecast valid from 05 at 18 UTC to 06 at 18 UTC
Wind 12 kt from the North/Northwest
Visibility: 7000 m
Temporary
between 06 and 08 UTC
Visibility: 3000 m
Blowing dust

TAF: ORNI 051600Z 0518/0618 33012KT 7000 NSC TEMPO 0608 /0613 G22KT 3000 BLDU

Weather observations and forecasts of more than 4000 airports (METAR and TAF reports).

The available stations are represented by yellow and red dots on the map.

Hover mouse over dot to see the name of the station.

Then click to see weather observations and forecasts.

To change the map : click on the green buttons with a black cross to zoom in, on the green button with a dash to zoom out, or on the green arrows for adjacent maps.


METAR-TAF: